Time;durP1;ratioP1;P1;durP2;ratioP2;P2;SDS_P1;SDS_P2;PMS_P1;PMS_P2;Temp;Humidity;BMP_temperature;BMP_pressure;BME280_temperature;BME280_humidity;BME280_pressure;Samples;Min_cycle;Max_cycle;Signal;HPM_P1;HPM_P2
2022/09/20 00:03:31;;;;;;;0.10;0.10;;;;;;;13.28;64.09;98258.03;8415497;28;20238;-72
2022/09/20 00:07:34;;;;;;;0.00;0.00;;;;;;;13.29;64.85;98255.34;8415320;28;20254;-72
2022/09/20 00:11:37;;;;;;;0.00;0.00;;;;;;;13.41;64.26;98255.69;8414951;28;20297;-72
2022/09/20 00:15:43;;;;;;;0.00;0.00;;;;;;;13.38;64.22;98248.03;8415068;28;20396;-72
2022/09/20 00:19:45;;;;;;;0.00;0.00;;;;;;;13.35;64.55;98249.03;8414939;28;20242;-72
2022/09/20 00:23:48;;;;;;;0.00;0.00;;;;;;;13.22;64.77;98246.16;8414385;28;20249;-71
2022/09/20 00:27:51;;;;;;;0.00;0.00;;;;;;;13.30;64.54;98257.06;8414802;28;20235;-71
2022/09/20 00:31:55;;;;;;;0.00;0.00;;;;;;;13.38;63.93;98255.81;8414572;28;20230;-72
2022/09/20 00:35:59;;;;;;;0.00;0.00;;;;;;;13.27;64.82;98249.38;8414787;28;20538;-73
2022/09/20 00:40:02;;;;;;;0.10;0.10;;;;;;;13.25;64.59;98245.16;8414402;28;20234;-73
2022/09/20 00:44:38;;;;;;;0.97;0.10;;;;;;;13.32;65.03;98248.34;8414289;28;20242;-73
2022/09/20 00:48:42;;;;;;;0.00;0.00;;;;;;;13.31;64.47;98237.09;8414455;28;20280;-73
2022/09/20 00:52:46;;;;;;;0.00;0.00;;;;;;;13.32;64.82;98248.34;8414343;28;20552;-73
2022/09/20 00:56:50;;;;;;;0.00;0.00;;;;;;;13.24;64.62;98244.34;8413924;28;20255;-72
2022/09/20 01:00:55;;;;;;;0.00;0.00;;;;;;;13.26;64.67;98247.69;8414139;28;20530;-73
2022/09/20 01:05:00;;;;;;;0.00;0.00;;;;;;;13.29;64.65;98244.13;8413744;28;20340;-73
2022/09/20 01:09:06;;;;;;;0.00;0.00;;;;;;;13.30;64.28;98244.03;8414118;28;20529;-73
2022/09/20 01:13:08;;;;;;;0.00;0.00;;;;;;;13.19;64.51;98240.28;8413850;28;20237;-73
2022/09/20 01:17:12;;;;;;;0.00;0.00;;;;;;;13.30;64.28;98245.81;8413853;28;20223;-74
2022/09/20 01:21:17;;;;;;;0.00;0.00;;;;;;;13.30;64.29;98246.66;8413730;28;20234;-73
2022/09/20 01:25:30;;;;;;;0.03;0.03;;;;;;;13.27;64.15;98243.34;8412726;28;20751;-73
2022/09/20 01:29:44;;;;;;;0.00;0.00;;;;;;;13.14;64.61;98247.50;8413529;28;20542;-74
2022/09/20 01:33:51;;;;;;;0.00;0.00;;;;;;;13.28;64.68;98253.66;8412720;28;20230;-73
2022/09/20 01:38:09;;;;;;;0.00;0.00;;;;;;;13.18;64.64;98251.63;8413325;28;20234;-73
2022/09/20 01:42:13;;;;;;;0.00;0.00;;;;;;;13.23;64.59;98247.00;8413689;28;20427;-73
2022/09/20 01:46:27;;;;;;;0.00;0.00;;;;;;;13.29;64.05;98247.53;8413197;28;20275;-73
2022/09/20 01:50:34;;;;;;;0.00;0.00;;;;;;;13.19;64.50;98245.47;8413282;28;20563;-73
2022/09/20 01:55:07;;;;;;;0.10;0.10;;;;;;;13.23;63.81;98247.00;8413255;28;20234;-73
2022/09/20 01:59:38;;;;;;;0.00;0.00;;;;;;;13.30;63.92;98262.25;8412768;28;20522;-73
2022/09/20 02:04:06;;;;;;;0.00;0.00;;;;;;;13.23;64.47;98260.00;8412968;28;20230;-74
2022/09/20 02:08:22;;;;;;;0.00;0.00;;;;;;;13.22;64.25;98253.97;8412726;28;20246;-73
2022/09/20 02:12:40;;;;;;;0.00;0.00;;;;;;;13.23;64.58;98273.00;8412776;28;20231;-73
2022/09/20 02:16:50;;;;;;;0.07;0.07;;;;;;;13.21;64.71;98264.44;8412735;28;20231;-74
2022/09/20 02:20:57;;;;;;;0.00;0.00;;;;;;;13.23;64.39;98263.47;8412430;28;20242;-73
2022/09/20 02:25:10;;;;;;;0.10;0.10;;;;;;;13.16;64.66;98259.50;8412544;28;20466;-75
2022/09/20 02:29:24;;;;;;;0.00;0.00;;;;;;;13.27;64.40;98262.38;8412335;28;20222;-73
2022/09/20 02:33:40;;;;;;;0.00;0.00;;;;;;;13.22;64.76;98261.78;8412600;28;20276;-73
2022/09/20 02:37:55;;;;;;;0.00;0.00;;;;;;;13.09;64.36;98266.75;8418009;28;20230;-73
2022/09/20 02:42:03;;;;;;;0.00;0.00;;;;;;;13.18;64.93;98265.44;8417533;28;20238;-73
2022/09/20 02:46:10;;;;;;;0.00;0.00;;;;;;;13.22;64.36;98266.97;8418039;28;20242;-73
2022/09/20 02:50:26;;;;;;;0.10;0.10;;;;;;;13.25;64.30;98253.81;8418173;28;20303;-73
2022/09/20 02:54:37;;;;;;;0.10;0.10;;;;;;;13.22;64.14;98266.97;8417850;28;20255;-73
2022/09/20 02:58:48;;;;;;;0.00;0.00;;;;;;;13.13;63.86;98256.19;8417778;28;20226;-73
2022/09/20 03:03:02;;;;;;;0.03;0.03;;;;;;;13.22;64.60;98251.38;8417104;28;20233;-73
2022/09/20 03:07:12;;;;;;;0.10;0.10;;;;;;;13.17;64.37;98266.34;8417439;28;20234;-73
2022/09/20 03:11:22;;;;;;;0.10;0.10;;;;;;;13.16;64.42;98271.66;8417337;28;20245;-73
2022/09/20 03:15:31;;;;;;;0.00;0.00;;;;;;;13.10;64.65;98262.41;8417280;28;20234;-73
2022/09/20 03:19:46;;;;;;;0.10;0.10;;;;;;;13.10;64.19;98271.03;8416993;28;20235;-73
2022/09/20 03:23:57;;;;;;;0.10;0.10;;;;;;;13.20;64.42;98268.81;8416632;28;20234;-72
2022/09/20 03:28:08;;;;;;;0.10;0.10;;;;;;;13.03;64.39;98266.22;8416631;28;20250;-73
2022/09/20 03:32:25;;;;;;;0.10;0.10;;;;;;;12.97;64.63;98269.97;8416852;28;20544;-73
2022/09/20 03:36:45;;;;;;;0.00;0.00;;;;;;;13.00;64.74;98267.19;8416649;28;20360;-73
2022/09/20 03:41:25;;;;;;;0.00;0.00;;;;;;;13.02;64.32;98268.00;8415568;28;20234;-72
2022/09/20 03:45:46;;;;;;;0.00;0.00;;;;;;;13.06;63.99;98272.13;8415786;28;20242;-73
2022/09/20 03:50:22;;;;;;;0.07;0.07;;;;;;;12.98;63.83;98273.41;8415599;28;20234;-72
2022/09/20 03:55:04;;;;;;;0.00;0.00;;;;;;;12.84;64.52;98269.72;8316919;28;20460;-73
2022/09/20 03:59:18;;;;;;;0.00;0.00;;;;;;;12.82;64.77;98281.09;8415477;28;20239;-73
2022/09/20 04:03:28;;;;;;;0.03;0.03;;;;;;;12.91;64.38;98275.47;8415691;28;20486;-73
2022/09/20 04:07:41;;;;;;;0.00;0.00;;;;;;;12.93;63.95;98284.03;8415344;28;20430;-73
2022/09/20 04:11:51;;;;;;;0.00;0.00;;;;;;;12.83;64.44;98286.25;8415231;28;20230;-73
2022/09/20 04:16:06;;;;;;;0.10;0.10;;;;;;;12.82;63.90;98291.50;8414739;28;20231;-73
2022/09/20 04:20:15;;;;;;;0.00;0.00;;;;;;;12.78;63.58;98297.78;8414811;28;20300;-74
2022/09/20 04:24:22;;;;;;;0.10;0.10;;;;;;;12.67;64.44;98288.72;8415043;28;20404;-73
2022/09/20 04:28:31;;;;;;;0.00;0.00;;;;;;;12.69;63.96;98297.28;8415195;28;20533;-74
2022/09/20 04:32:39;;;;;;;0.07;0.07;;;;;;;12.64;63.72;98304.47;8414804;28;20243;-74
2022/09/20 04:37:03;;;;;;;0.00;0.00;;;;;;;12.61;63.84;98304.59;8414628;28;20234;-74
2022/09/20 04:41:29;;;;;;;0.03;0.03;;;;;;;12.60;63.80;98294.28;8413879;28;20236;-73
2022/09/20 04:45:59;;;;;;;0.10;0.10;;;;;;;12.55;63.96;98302.28;8414242;28;20235;-73
2022/09/20 04:50:37;;;;;;;0.10;0.10;;;;;;;12.41;64.00;98307.28;8413867;28;20247;-74
2022/09/20 04:55:03;;;;;;;0.03;0.03;;;;;;;12.47;63.56;98309.59;8414126;28;20235;-73
2022/09/20 04:59:07;;;;;;;0.10;0.10;;;;;;;12.56;63.52;98314.34;8413856;28;20230;-73
2022/09/20 05:03:47;;;;;;;0.10;0.10;;;;;;;12.52;63.73;98318.00;8413908;28;20230;-73
2022/09/20 05:08:02;;;;;;;0.10;0.10;;;;;;;12.57;63.44;98313.47;8316246;28;20235;-73
2022/09/20 05:12:36;;;;;;;0.10;0.10;;;;;;;12.56;63.62;98319.56;8413886;28;20239;-73
2022/09/20 05:16:49;;;;;;;0.10;0.10;;;;;;;12.57;63.67;98328.22;8413926;28;20235;-74
2022/09/20 05:21:10;;;;;;;0.10;0.10;;;;;;;12.74;63.50;98335.19;8413260;28;20268;-73
2022/09/20 05:25:37;;;;;;;0.10;0.10;;;;;;;12.82;63.30;98330.50;8413554;28;20222;-73
2022/09/20 05:29:50;;;;;;;0.10;0.10;;;;;;;12.91;63.16;98325.69;8413572;28;20268;-74
2022/09/20 05:34:00;;;;;;;0.00;0.00;;;;;;;12.87;63.46;98329.34;8412893;28;20227;-73
2022/09/20 05:38:06;;;;;;;0.10;0.10;;;;;;;12.88;63.61;98328.41;8413195;28;20231;-73
2022/09/20 05:42:18;;;;;;;0.10;0.10;;;;;;;12.96;62.94;98337.63;8412952;28;20286;-73
2022/09/20 05:46:34;;;;;;;0.10;0.10;;;;;;;12.95;63.31;98347.19;8413263;28;20284;-73
2022/09/20 05:50:43;;;;;;;0.10;0.10;;;;;;;12.98;63.36;98352.22;8413190;28;20239;-74
2022/09/20 05:55:16;;;;;;;0.00;0.00;;;;;;;13.11;63.93;98355.91;8413040;28;20235;-73
2022/09/20 05:59:29;;;;;;;0.00;0.00;;;;;;;13.09;64.45;98356.91;8410031;28;20227;-74
2022/09/20 06:03:40;;;;;;;0.10;0.10;;;;;;;12.85;65.76;98357.19;8413087;28;20502;-74
2022/09/20 06:08:15;;;;;;;0.10;0.10;;;;;;;13.10;64.54;98358.59;8412676;28;20325;-73
2022/09/20 06:12:34;;;;;;;0.00;0.00;;;;;;;13.13;65.08;98360.22;8401802;28;20432;-73
2022/09/20 06:16:43;;;;;;;0.00;0.00;;;;;;;13.25;64.67;98359.59;8419089;28;20230;-74
2022/09/20 06:20:55;;;;;;;0.10;0.10;;;;;;;13.09;65.07;98355.16;8418781;28;20423;-74
2022/09/20 06:25:02;;;;;;;0.00;0.00;;;;;;;13.18;64.96;98356.47;8418553;28;20269;-73
2022/09/20 06:29:06;;;;;;;0.10;0.10;;;;;;;13.08;64.81;98356.06;8418703;28;20234;-73
2022/09/20 06:33:15;;;;;;;0.10;0.10;;;;;;;13.13;64.54;98358.44;8418604;28;20227;-73
2022/09/20 06:41:51;;;;;;;0.10;0.10;;;;;;;13.22;65.02;98364.97;8417877;28;20518;-73
2022/09/20 06:45:54;;;;;;;0.00;0.00;;;;;;;13.36;64.96;98370.34;8417895;28;20243;-73
2022/09/20 06:49:58;;;;;;;0.00;0.00;;;;;;;13.41;64.43;98365.78;8418070;28;20230;-74
2022/09/20 06:54:03;;;;;;;0.00;0.00;;;;;;;13.32;65.28;98363.63;8417954;28;20280;-75
2022/09/20 06:58:08;;;;;;;0.10;0.10;;;;;;;13.24;65.48;98371.75;8417637;28;20384;-74
2022/09/20 07:02:11;;;;;;;0.10;0.10;;;;;;;13.29;64.67;98372.41;8417328;28;20234;-74
2022/09/20 07:06:15;;;;;;;0.00;0.00;;;;;;;13.33;64.63;98374.84;8417691;28;20432;-74
2022/09/20 07:10:19;;;;;;;0.07;0.07;;;;;;;13.43;64.03;98373.50;8417484;28;20231;-74
2022/09/20 07:14:23;;;;;;;0.10;0.10;;;;;;;13.53;63.77;98377.31;8417280;28;20227;-74
2022/09/20 07:18:26;;;;;;;0.00;0.00;;;;;;;13.56;64.22;98376.34;8417433;28;20234;-74
2022/09/20 07:22:29;;;;;;;0.00;0.00;;;;;;;13.67;64.15;98381.84;8415747;28;20234;-74
2022/09/20 07:26:33;;;;;;;0.10;0.10;;;;;;;13.70;63.35;98384.28;8417103;28;20307;-73
2022/09/20 07:30:37;;;;;;;0.00;0.00;;;;;;;13.86;63.41;98390.41;8416856;28;20230;-73
2022/09/20 07:34:40;;;;;;;0.10;0.10;;;;;;;13.87;62.51;98393.84;8416640;28;20234;-74
2022/09/20 07:38:46;;;;;;;0.10;0.10;;;;;;;14.04;62.47;98393.81;8416684;28;20237;-74
2022/09/20 07:42:50;;;;;;;0.00;0.00;;;;;;;14.50;62.10;98395.78;8415976;28;20234;-74
2022/09/20 07:47:01;;;;;;;0.00;0.00;;;;;;;15.45;72.31;98387.91;8416331;28;20425;-75
2022/09/20 07:51:05;;;;;;;0.00;0.00;;;;;;;16.07;64.43;98402.66;8415851;28;20230;-74
2022/09/20 07:55:10;;;;;;;0.00;0.00;;;;;;;16.01;58.74;98405.59;8416195;28;20470;-76
2022/09/20 07:59:15;;;;;;;0.00;0.00;;;;;;;15.49;59.26;98414.69;8416379;28;20241;-75
2022/09/20 08:03:18;;;;;;;0.00;0.00;;;;;;;15.25;58.84;98417.78;8415966;28;20235;-75
2022/09/20 08:07:20;;;;;;;0.00;0.00;;;;;;;14.92;58.85;98419.63;8415986;28;20230;-76
2022/09/20 08:11:25;;;;;;;0.00;0.00;;;;;;;14.98;59.63;98414.94;8415635;28;20541;-75
2022/09/20 08:15:32;;;;;;;0.10;0.10;;;;;;;14.89;59.25;98420.66;8415409;28;20318;-75
2022/09/20 08:19:35;;;;;;;0.00;0.00;;;;;;;14.74;59.58;98429.31;8415512;28;20241;-74
2022/09/20 08:23:39;;;;;;;0.00;0.00;;;;;;;14.76;59.29;98427.47;8415190;28;20288;-75
2022/09/20 08:27:41;;;;;;;0.10;0.10;;;;;;;14.58;59.43;98424.94;8415482;28;20237;-75
2022/09/20 08:31:46;;;;;;;0.00;0.00;;;;;;;15.09;59.88;98422.16;8415118;28;20257;-75
2022/09/20 08:35:49;;;;;;;0.00;0.00;;;;;;;15.20;58.21;98437.22;8414610;28;20234;-74
2022/09/20 08:39:52;;;;;;;0.00;0.00;;;;;;;15.05;58.34;98436.28;8415772;28;20525;-75
2022/09/20 08:44:03;;;;;;;0.00;0.00;;;;;;;15.19;58.57;98441.59;8414994;28;20348;-75
2022/09/20 08:48:13;;;;;;;0.00;0.00;;;;;;;15.05;57.61;98437.13;8414689;28;20301;-75
2022/09/20 08:52:19;;;;;;;0.00;0.00;;;;;;;16.00;57.74;98435.28;8414288;28;20231;-76
2022/09/20 08:56:22;;;;;;;0.00;0.00;;;;;;;15.97;56.57;98435.47;8414521;28;20250;-76
2022/09/20 09:00:28;;;;;;;0.00;0.00;;;;;;;15.59;57.58;98434.13;8414316;28;20287;-76
2022/09/20 09:04:35;;;;;;;0.00;0.00;;;;;;;15.29;58.92;98439.31;8413865;28;20235;-76
2022/09/20 09:08:39;;;;;;;0.00;0.00;;;;;;;15.21;59.74;98437.13;8414198;28;20230;-75
2022/09/20 09:12:45;;;;;;;0.00;0.00;;;;;;;14.85;60.27;98453.88;8413974;28;20526;-75
2022/09/20 09:16:50;;;;;;;0.00;0.00;;;;;;;14.90;60.27;98448.41;8413803;28;20502;-76
2022/09/20 09:20:56;;;;;;;0.10;0.10;;;;;;;15.90;59.54;98447.22;8413585;28;20234;-75
2022/09/20 09:25:23;;;;;;;0.00;0.00;;;;;;;17.50;56.61;98440.84;8414027;28;20425;-76
2022/09/20 09:29:25;;;;;;;0.00;0.00;;;;;;;18.24;53.07;98432.50;8413764;28;20239;-75
2022/09/20 09:33:29;;;;;;;0.00;0.00;;;;;;;17.79;51.61;98430.22;8413755;28;20227;-76
2022/09/20 09:37:33;;;;;;;0.00;0.00;;;;;;;17.43;52.92;98428.25;8413610;28;20226;-76
2022/09/20 09:41:36;;;;;;;0.00;0.00;;;;;;;16.57;54.22;98434.50;8413477;28;20254;-76
2022/09/20 09:45:39;;;;;;;0.00;0.00;;;;;;;17.20;54.46;98441.03;8416123;28;20246;-76
2022/09/20 09:49:56;;;;;;;0.00;0.00;;;;;;;17.14;52.83;98430.97;8419750;28;20230;-76
2022/09/20 09:54:07;;;;;;;0.00;0.00;;;;;;;17.87;53.06;98435.81;8419561;28;20230;-76
2022/09/20 09:58:15;;;;;;;0.00;0.00;;;;;;;17.37;52.85;98432.09;8419734;28;20295;-76
2022/09/20 10:02:33;;;;;;;0.00;0.00;;;;;;;18.17;51.07;98422.44;8419627;28;20241;-77
2022/09/20 10:06:42;;;;;;;0.00;0.00;;;;;;;17.43;50.54;98429.09;8418850;28;20470;-76
2022/09/20 10:10:58;;;;;;;0.00;0.00;;;;;;;16.98;52.03;98421.47;8419427;28;20231;-76
2022/09/20 10:15:13;;;;;;;0.00;0.00;;;;;;;16.61;51.65;98422.91;8418705;28;20235;-76
2022/09/20 10:19:23;;;;;;;0.00;0.00;;;;;;;16.99;52.80;98423.16;8419093;28;20229;-76
2022/09/20 10:23:41;;;;;;;0.00;0.00;;;;;;;17.48;50.89;98431.41;8418765;28;20235;-76
2022/09/20 10:28:15;;;;;;;0.00;0.00;;;;;;;17.64;49.17;98426.84;8418235;28;20298;-77
2022/09/20 10:32:25;;;;;;;0.00;0.00;;;;;;;18.36;48.55;98427.25;8418606;28;20243;-76
2022/09/20 10:36:32;;;;;;;0.00;0.00;;;;;;;19.14;45.21;98417.47;8418528;28;20235;-76
2022/09/20 10:45:11;;;;;;;0.00;0.00;;;;;;;18.95;46.01;98410.06;8417744;28;20231;-76
2022/09/20 10:49:36;;;;;;;0.00;0.00;;;;;;;18.90;45.76;98418.25;8418038;28;20298;-75
2022/09/20 10:53:43;;;;;;;0.00;0.00;;;;;;;17.98;46.21;98425.47;8418023;28;20235;-71
2022/09/20 10:58:13;;;;;;;0.00;0.00;;;;;;;17.17;47.77;98428.13;8417620;28;20231;-75
2022/09/20 11:02:33;;;;;;;0.00;0.00;;;;;;;17.06;48.47;98417.50;8417582;28;20297;-75
2022/09/20 11:06:46;;;;;;;0.00;0.00;;;;;;;17.76;48.39;98422.56;8417649;28;20303;-76
2022/09/20 11:10:51;;;;;;;0.00;0.00;;;;;;;17.53;48.07;98421.47;8417197;28;20292;-75
2022/09/20 11:14:56;;;;;;;0.00;0.00;;;;;;;17.84;47.21;98419.44;8417664;28;20235;-75
2022/09/20 11:19:04;;;;;;;0.00;0.00;;;;;;;18.55;46.00;98423.38;8417266;28;20223;-76
2022/09/20 11:23:14;;;;;;;0.00;0.00;;;;;;;18.79;45.41;98412.94;8416951;28;20429;-76
2022/09/20 11:27:18;;;;;;;0.00;0.00;;;;;;;19.09;43.19;98417.78;8416976;28;20239;-75
2022/09/20 11:31:25;;;;;;;0.00;0.00;;;;;;;19.87;42.51;98426.97;8417236;28;20518;-76
2022/09/20 11:35:32;;;;;;;0.00;0.00;;;;;;;18.81;43.82;98425.94;8417800;28;20445;-77
2022/09/20 11:39:39;;;;;;;0.00;0.00;;;;;;;17.92;46.78;98432.91;8418650;28;20554;-87
2022/09/20 11:43:43;;;;;;;0.00;0.00;;;;;;;17.50;48.27;98446.09;8418308;28;20234;-83
2022/09/20 11:47:48;;;;;;;0.00;0.00;;;;;;;17.03;47.55;98434.25;8418564;28;20251;-76
2022/09/20 11:52:16;;;;;;;0.00;0.00;;;;;;;16.90;47.38;98433.34;8417009;28;20429;-77
2022/09/20 11:56:20;;;;;;;0.00;0.00;;;;;;;16.71;48.09;98433.63;8416688;28;20421;-75
2022/09/20 12:00:28;;;;;;;0.00;0.00;;;;;;;17.41;47.58;98428.34;8416713;28;20246;-76
2022/09/20 12:04:34;;;;;;;0.00;0.00;;;;;;;18.46;46.93;98422.19;8416441;28;20242;-76
2022/09/20 12:08:41;;;;;;;0.00;0.00;;;;;;;17.96;45.28;98429.13;8416145;28;20235;-76
2022/09/20 12:12:45;;;;;;;0.00;0.00;;;;;;;17.56;45.92;98426.50;8416649;28;20246;-76
2022/09/20 12:16:49;;;;;;;0.00;0.00;;;;;;;17.35;49.18;98423.50;8415746;28;20234;-76
2022/09/20 12:21:14;;;;;;;0.00;0.00;;;;;;;17.38;49.19;98431.16;8416953;28;20223;-75
2022/09/20 12:25:39;;;;;;;0.00;0.00;;;;;;;18.70;46.61;98421.47;8416305;28;20416;-76
2022/09/20 12:30:05;;;;;;;0.00;0.00;;;;;;;19.04;46.61;98419.06;8415417;28;20237;-76
2022/09/20 12:34:33;;;;;;;0.00;0.00;;;;;;;18.89;44.53;98421.84;8414664;28;20235;-74
2022/09/20 12:38:47;;;;;;;0.00;0.00;;;;;;;18.65;44.52;98421.75;8414770;28;20246;-74
2022/09/20 12:42:55;;;;;;;0.00;0.00;;;;;;;19.18;42.92;98418.91;8413808;28;20227;-77
2022/09/20 12:47:00;;;;;;;0.00;0.00;;;;;;;19.63;42.05;98415.63;8414571;28;20251;-76
2022/09/20 12:55:36;;;;;;;0.00;0.00;;;;;;;19.38;43.23;98404.34;8414695;28;20232;-75
2022/09/20 12:59:41;;;;;;;0.00;0.00;;;;;;;18.79;42.87;98399.81;8414088;28;20231;-77
2022/09/20 13:03:47;;;;;;;0.00;0.00;;;;;;;19.03;43.46;98401.66;8414465;28;20452;-76
2022/09/20 13:07:55;;;;;;;0.00;0.00;;;;;;;19.94;41.78;98400.25;8413743;28;20458;-76
2022/09/20 13:12:01;;;;;;;0.00;0.00;;;;;;;20.13;41.71;98395.25;8414371;28;20243;-76
2022/09/20 13:16:06;;;;;;;0.00;0.00;;;;;;;20.40;40.08;98396.72;8414180;28;20553;-76
2022/09/20 13:20:15;;;;;;;0.00;0.00;;;;;;;20.44;41.74;98387.63;8413287;28;20234;-76
2022/09/20 13:24:20;;;;;;;0.00;0.00;;;;;;;19.69;41.81;98381.88;8414272;28;20233;-76
2022/09/20 13:28:37;;;;;;;0.00;0.00;;;;;;;18.90;43.65;98388.56;8414344;28;20231;-76
2022/09/20 13:32:41;;;;;;;0.00;0.00;;;;;;;19.61;42.31;98392.13;8413433;28;20467;-76
2022/09/20 13:36:45;;;;;;;0.00;0.00;;;;;;;19.82;40.81;98394.97;8413517;28;20231;-76
2022/09/20 13:40:49;;;;;;;0.00;0.00;;;;;;;19.08;41.27;98386.41;8412998;28;20516;-75
2022/09/20 13:44:52;;;;;;;0.00;0.00;;;;;;;18.52;43.18;98382.47;8412850;28;20307;-76
2022/09/20 13:49:12;;;;;;;0.00;0.00;;;;;;;19.80;40.83;98378.47;8413093;28;20538;-76
2022/09/20 13:53:17;;;;;;;0.00;0.00;;;;;;;19.82;37.86;98381.84;8413116;28;20235;-76
2022/09/20 13:57:40;;;;;;;0.00;0.00;;;;;;;20.13;38.13;98373.41;8412865;28;20237;-76
2022/09/20 14:01:49;;;;;;;0.00;0.00;;;;;;;19.44;39.10;98375.00;8413262;28;20233;-76
2022/09/20 14:05:55;;;;;;;0.00;0.00;;;;;;;18.52;41.80;98386.84;8412885;28;20299;-76
2022/09/20 14:09:59;;;;;;;0.00;0.00;;;;;;;18.27;42.70;98374.63;8413262;28;20232;-76
2022/09/20 14:14:03;;;;;;;0.00;0.00;;;;;;;19.22;41.60;98386.22;8412740;28;20250;-75
2022/09/20 14:18:07;;;;;;;0.00;0.00;;;;;;;19.66;40.96;98387.34;8412752;28;20239;-76
2022/09/20 14:22:17;;;;;;;0.00;0.00;;;;;;;19.81;38.70;98390.66;8413043;28;20227;-76
2022/09/20 14:26:26;;;;;;;0.00;0.00;;;;;;;20.00;38.04;98391.91;8412586;28;20238;-76
2022/09/20 14:30:31;;;;;;;0.00;0.00;;;;;;;19.86;37.56;98398.22;8413516;28;20235;-76
2022/09/20 14:34:35;;;;;;;0.00;0.00;;;;;;;20.05;36.13;98398.47;8418827;28;20569;-76
2022/09/20 14:38:40;;;;;;;0.00;0.00;;;;;;;19.79;37.14;98391.72;8418458;28;20233;-76
2022/09/20 14:42:44;;;;;;;0.00;0.00;;;;;;;19.83;37.60;98387.91;8418388;28;20504;-76
2022/09/20 14:46:47;;;;;;;0.00;0.00;;;;;;;20.02;37.61;98385.56;8417980;28;20241;-75
2022/09/20 14:51:20;;;;;;;0.00;0.00;;;;;;;19.96;37.47;98391.28;8418393;28;20235;-76
2022/09/20 14:55:27;;;;;;;0.00;0.00;;;;;;;19.80;37.15;98398.66;8418137;28;20518;-76
2022/09/20 14:59:38;;;;;;;0.00;0.00;;;;;;;19.24;38.82;98389.59;8417845;28;20430;-76
2022/09/20 15:03:42;;;;;;;0.00;0.00;;;;;;;19.46;38.94;98395.91;8417723;28;20440;-76
2022/09/20 15:07:45;;;;;;;0.00;0.00;;;;;;;19.79;38.91;98399.63;8417494;28;20320;-76
2022/09/20 15:12:01;;;;;;;0.00;0.00;;;;;;;19.54;38.11;98397.00;8417249;28;20246;-75
2022/09/20 15:16:04;;;;;;;0.00;0.00;;;;;;;18.84;39.58;98402.97;8417419;28;20244;-75
2022/09/20 15:20:13;;;;;;;0.00;0.00;;;;;;;18.49;39.92;98405.44;8417318;28;20233;-75
2022/09/20 15:24:16;;;;;;;0.00;0.00;;;;;;;18.32;41.22;98406.59;8417616;28;20230;-74
2022/09/20 15:28:21;;;;;;;0.00;0.00;;;;;;;18.48;42.15;98409.81;8417371;28;20306;-72
2022/09/20 15:32:24;;;;;;;0.00;0.00;;;;;;;18.06;43.70;98413.63;8416658;28;20283;-72
2022/09/20 15:36:30;;;;;;;0.00;0.00;;;;;;;18.48;42.67;98414.25;8416577;28;20423;-73
2022/09/20 15:40:33;;;;;;;0.00;0.00;;;;;;;18.66;42.15;98420.81;8416750;28;20350;-74
2022/09/20 15:44:37;;;;;;;0.00;0.00;;;;;;;18.19;41.94;98421.50;8415338;28;20439;-74
2022/09/20 15:48:40;;;;;;;0.00;0.00;;;;;;;18.53;42.51;98417.38;8416302;28;20239;-74
2022/09/20 15:52:43;;;;;;;0.00;0.00;;;;;;;18.52;43.46;98420.94;8415689;28;20232;-74
2022/09/20 15:56:46;;;;;;;0.00;0.00;;;;;;;17.93;46.33;98426.72;8416103;28;20230;-74
2022/09/20 16:00:50;;;;;;;0.00;0.00;;;;;;;17.88;48.49;98436.69;8415645;28;20235;-74
2022/09/20 16:04:54;;;;;;;0.00;0.00;;;;;;;17.64;48.26;98439.94;8415538;28;20361;-75
2022/09/20 16:08:57;;;;;;;0.00;0.00;;;;;;;17.61;50.42;98441.91;8415787;28;20429;-74
2022/09/20 16:13:00;;;;;;;0.00;0.00;;;;;;;17.52;49.99;98452.06;8415647;28;20230;-76
2022/09/20 16:17:04;;;;;;;0.00;0.00;;;;;;;17.25;50.79;98451.19;8415406;28;20376;-76
2022/09/20 16:21:08;;;;;;;0.00;0.00;;;;;;;17.28;50.26;98453.63;8415502;28;20237;-76
2022/09/20 16:25:10;;;;;;;0.00;0.00;;;;;;;17.20;51.18;98456.75;8415257;28;20239;-76
2022/09/20 16:29:16;;;;;;;0.00;0.00;;;;;;;17.13;51.38;98464.13;8415689;28;20227;-76
2022/09/20 16:33:20;;;;;;;0.10;0.10;;;;;;;17.10;50.93;98477.44;8415118;28;20231;-75
2022/09/20 16:37:24;;;;;;;0.00;0.00;;;;;;;16.92;51.66;98478.56;8415143;28;20237;-75
2022/09/20 16:41:29;;;;;;;0.00;0.00;;;;;;;16.79;51.50;98486.28;8415319;28;20230;-75
2022/09/20 16:45:31;;;;;;;0.03;0.00;;;;;;;16.73;52.34;98495.34;8414900;28;20285;-77
2022/09/20 16:49:36;;;;;;;0.00;0.00;;;;;;;16.64;51.55;98495.94;8414410;28;20271;-77
2022/09/20 16:53:39;;;;;;;0.00;0.00;;;;;;;16.65;51.14;98507.22;8414008;28;20393;-76
2022/09/20 16:57:41;;;;;;;0.00;0.00;;;;;;;16.44;50.26;98497.13;8413598;28;20314;-76
2022/09/20 17:01:45;;;;;;;0.00;0.00;;;;;;;16.35;52.03;98497.66;8414515;28;20230;-79
2022/09/20 17:05:50;;;;;;;0.00;0.00;;;;;;;16.34;52.32;98498.63;8414142;28;20234;-74
2022/09/20 17:09:59;;;;;;;0.00;0.00;;;;;;;16.28;53.32;98498.97;8414188;28;20233;-77
2022/09/20 17:14:03;;;;;;;0.00;0.00;;;;;;;16.20;52.64;98508.13;8414195;28;20231;-78
2022/09/20 17:18:08;;;;;;;0.00;0.00;;;;;;;15.99;52.12;98510.22;8413975;28;20272;-79
2022/09/20 17:22:18;;;;;;;0.00;0.00;;;;;;;15.93;52.74;98514.94;8413724;28;20233;-78
2022/09/20 17:26:23;;;;;;;0.00;0.00;;;;;;;15.83;53.08;98515.44;8413709;28;20239;-76
2022/09/20 17:30:26;;;;;;;0.00;0.00;;;;;;;15.77;53.36;98520.19;8413662;28;20231;-73
2022/09/20 17:34:30;;;;;;;0.00;0.00;;;;;;;15.68;53.88;98523.28;8413145;28;20238;-75
2022/09/20 17:38:35;;;;;;;0.00;0.00;;;;;;;15.40;54.62;98517.84;8413408;28;20234;-77
2022/09/20 17:42:38;;;;;;;0.00;0.00;;;;;;;15.30;54.60;98532.31;8412945;28;20238;-78
2022/09/20 17:46:42;;;;;;;0.00;0.00;;;;;;;15.31;55.22;98539.22;8413029;28;20485;-77
2022/09/20 17:50:54;;;;;;;0.00;0.00;;;;;;;15.27;55.25;98534.25;8412993;28;20241;-77
2022/09/20 17:54:58;;;;;;;0.00;0.00;;;;;;;15.30;55.51;98541.91;8412719;28;20425;-74
2022/09/20 17:59:02;;;;;;;0.00;0.00;;;;;;;15.09;56.23;98546.53;8412866;28;20230;-74
2022/09/20 18:03:05;;;;;;;0.00;0.00;;;;;;;16.48;66.22;98545.66;8413092;28;20460;-73
2022/09/20 18:07:08;;;;;;;0.00;0.00;;;;;;;16.77;58.46;98550.94;8416180;28;20230;-74
2022/09/20 18:11:12;;;;;;;0.00;0.00;;;;;;;15.88;54.21;98557.00;8419257;28;20227;-78
2022/09/20 18:15:15;;;;;;;0.00;0.00;;;;;;;15.49;55.29;98558.25;8419283;28;20455;-75
2022/09/20 18:19:20;;;;;;;0.00;0.00;;;;;;;15.29;55.98;98568.91;8419127;28;20230;-76
2022/09/20 18:23:22;;;;;;;0.00;0.00;;;;;;;15.08;56.18;98582.22;8419030;28;20533;-75
2022/09/20 18:27:27;;;;;;;0.00;0.00;;;;;;;15.03;55.82;98576.38;8418710;28;20235;-75
2022/09/20 18:31:32;;;;;;;0.00;0.00;;;;;;;14.87;56.70;98586.78;8418970;28;20276;-75
2022/09/20 18:35:41;;;;;;;0.00;0.00;;;;;;;14.77;56.82;98586.38;8418690;28;20249;-75
2022/09/20 18:39:44;;;;;;;0.00;0.00;;;;;;;14.62;57.13;98598.47;8418351;28;20227;-75
2022/09/20 18:43:48;;;;;;;0.00;0.00;;;;;;;14.59;57.47;98592.56;8418502;28;20230;-75
2022/09/20 18:47:55;;;;;;;0.00;0.00;;;;;;;14.62;56.99;98600.22;8417401;28;20234;-73
2022/09/20 18:51:58;;;;;;;0.00;0.00;;;;;;;14.43;57.65;98595.91;8417618;28;20402;-74
2022/09/20 18:56:06;;;;;;;0.00;0.00;;;;;;;14.36;57.97;98604.94;8417778;28;20245;-75
2022/09/20 19:00:11;;;;;;;0.00;0.00;;;;;;;14.36;57.76;98601.50;8417843;28;20222;-74
2022/09/20 19:04:27;;;;;;;0.00;0.00;;;;;;;14.33;57.86;98605.09;8417827;28;20536;-75
2022/09/20 19:08:33;;;;;;;0.00;0.00;;;;;;;14.26;58.15;98603.72;8417675;28;20230;-74
2022/09/20 19:12:41;;;;;;;0.00;0.00;;;;;;;14.30;57.84;98607.00;8417547;28;20231;-74
2022/09/20 19:16:46;;;;;;;0.00;0.00;;;;;;;14.39;57.08;98607.41;8417202;28;20258;-74
2022/09/20 19:20:54;;;;;;;0.00;0.00;;;;;;;14.40;57.24;98621.28;8416793;28;20230;-75
2022/09/20 19:25:11;;;;;;;0.07;0.07;;;;;;;14.25;57.97;98623.72;8416884;28;20234;-74
2022/09/20 19:29:18;;;;;;;0.00;0.00;;;;;;;14.09;57.81;98622.78;8416905;28;20241;-75
2022/09/20 19:33:23;;;;;;;0.00;0.00;;;;;;;14.21;58.06;98634.38;8416928;28;20230;-74
2022/09/20 19:37:32;;;;;;;0.00;0.00;;;;;;;14.26;58.00;98635.81;8416763;28;20254;-74
2022/09/20 19:41:46;;;;;;;0.00;0.00;;;;;;;14.11;57.89;98638.31;8416558;28;20549;-74
2022/09/20 19:45:56;;;;;;;0.00;0.00;;;;;;;13.97;58.21;98636.38;8415859;28;20521;-74
2022/09/20 19:50:07;;;;;;;0.00;0.00;;;;;;;14.00;58.42;98644.88;8416347;28;20231;-75